createdAt,value
2024-01-15T00:02:20.083Z,67.24
2024-01-15T00:04:49.930Z,67.07
2024-01-15T00:07:20.910Z,66.96
2024-01-15T00:09:52.446Z,66.63
2024-01-15T00:12:23.080Z,66.61
2024-01-15T00:14:53.944Z,66.82
2024-01-15T00:17:24.240Z,66.52
2024-01-15T00:19:55.204Z,66.35
2024-01-15T00:22:28.687Z,66.60
2024-01-15T00:24:58.597Z,66.09
2024-01-15T00:27:28.714Z,65.83
2024-01-15T00:29:58.610Z,65.22
2024-01-15T00:32:28.727Z,65.09
2024-01-15T00:34:58.670Z,64.78
2024-01-15T00:37:28.427Z,64.71
2024-01-15T00:39:59.267Z,64.32
2024-01-15T00:42:29.317Z,63.21
2024-01-15T00:44:59.152Z,63.40
2024-01-15T00:47:29.219Z,62.42
2024-01-15T00:50:01.422Z,62.65
2024-01-15T00:52:31.268Z,62.45
2024-01-15T00:55:01.388Z,61.55
2024-01-15T00:57:33.425Z,61.34
2024-01-15T01:00:06.531Z,60.92
2024-01-15T01:02:37.361Z,60.68
2024-01-15T01:05:07.657Z,60.15
2024-01-15T01:07:37.900Z,60.13
2024-01-15T01:10:08.960Z,59.57
2024-01-15T01:12:41.652Z,59.55
2024-01-15T01:15:11.682Z,59.78
2024-01-15T01:17:41.470Z,59.61
2024-01-15T01:20:14.158Z,59.21
2024-01-15T01:22:45.180Z,58.96
2024-01-15T01:25:15.361Z,58.52
2024-01-15T01:27:45.483Z,57.88
2024-01-15T01:30:15.769Z,57.81
2024-01-15T01:32:45.869Z,57.36
2024-01-15T01:35:16.185Z,57.37
2024-01-15T01:37:46.805Z,57.26
2024-01-15T01:40:17.156Z,57.62
2024-01-15T01:42:47.445Z,57.46
2024-01-15T01:45:17.790Z,57.90
2024-01-15T01:47:47.808Z,57.45
2024-01-15T01:50:17.904Z,57.45
2024-01-15T01:52:51.164Z,57.16
2024-01-15T01:55:21.809Z,56.88
2024-01-15T01:57:51.790Z,56.41
2024-01-15T02:00:22.028Z,56.46
2024-01-15T02:02:54.853Z,56.36
2024-01-15T02:05:24.864Z,57.04
2024-01-15T02:07:54.961Z,58.06
2024-01-15T02:10:25.776Z,58.56
2024-01-15T02:12:56.495Z,58.97
2024-01-15T02:15:26.774Z,58.41
2024-01-15T02:18:01.242Z,59.16
2024-01-15T02:20:31.413Z,59.09
2024-01-15T02:23:14.661Z,58.97
2024-01-15T02:25:53.430Z,58.18
2024-01-15T02:28:23.262Z,58.36
2024-01-15T02:30:53.479Z,58.19
2024-01-15T02:33:27.541Z,57.82
2024-01-15T02:35:57.597Z,57.96
2024-01-15T02:38:27.583Z,57.56
2024-01-15T02:40:57.670Z,57.38
2024-01-15T02:43:27.641Z,57.91
2024-01-15T02:45:57.392Z,57.70
2024-01-15T02:48:27.466Z,57.10
2024-01-15T02:50:57.469Z,57.40
2024-01-15T02:53:27.410Z,57.25
2024-01-15T02:55:57.396Z,57.64
2024-01-15T02:58:27.521Z,57.44
2024-01-15T03:00:57.617Z,57.17
2024-01-15T03:03:28.012Z,56.70
2024-01-15T03:05:58.142Z,56.66
2024-01-15T03:08:28.390Z,56.34
2024-01-15T03:10:59.268Z,56.63
2024-01-15T03:13:30.148Z,56.38
2024-01-15T03:16:00.733Z,56.33
2024-01-15T03:18:30.886Z,56.36
2024-01-15T03:21:03.408Z,56.17
2024-01-15T03:23:33.301Z,56.04
2024-01-15T03:26:03.617Z,55.85
2024-01-15T03:28:33.551Z,55.85
2024-01-15T03:31:03.479Z,55.92
2024-01-15T03:33:34.079Z,55.89
2024-01-15T03:36:13.047Z,55.30
2024-01-15T03:38:44.327Z,55.18
2024-01-15T03:41:14.506Z,54.90
2024-01-15T03:43:45.186Z,54.94
2024-01-15T03:46:15.010Z,54.87
2024-01-15T03:48:44.905Z,55.05
2024-01-15T03:51:14.951Z,55.78
2024-01-15T03:53:44.857Z,55.68
2024-01-15T03:56:14.892Z,55.35
2024-01-15T03:58:44.793Z,55.39
2024-01-15T04:01:14.941Z,55.89
2024-01-15T04:03:47.921Z,56.13
2024-01-15T04:06:18.143Z,55.77
2024-01-15T04:08:48.076Z,55.58
2024-01-15T04:11:18.053Z,55.50
2024-01-15T04:13:48.141Z,55.08
2024-01-15T04:16:18.317Z,55.46
2024-01-15T04:18:52.173Z,55.25
2024-01-15T04:21:22.450Z,54.67
2024-01-15T04:23:53.281Z,54.84
2024-01-15T04:26:23.712Z,54.48
2024-01-15T04:28:53.699Z,54.34
2024-01-15T04:31:29.459Z,54.12
2024-01-15T04:33:59.655Z,54.01
2024-01-15T04:36:29.961Z,53.52
2024-01-15T04:39:00.011Z,54.03
2024-01-15T04:41:38.769Z,54.53
2024-01-15T04:44:08.771Z,54.55
2024-01-15T04:46:38.573Z,54.44
2024-01-15T04:49:08.594Z,54.02
2024-01-15T04:51:38.682Z,53.75
2024-01-15T04:54:08.722Z,53.66
2024-01-15T04:56:38.405Z,53.16
2024-01-15T04:59:08.750Z,52.91
2024-01-15T05:01:38.424Z,52.52
2024-01-15T05:04:10.045Z,51.40
2024-01-15T05:06:40.054Z,51.38
2024-01-15T05:09:18.006Z,51.00
2024-01-15T05:11:48.202Z,50.40
2024-01-15T05:14:18.162Z,52.27
2024-01-15T05:16:52.680Z,53.68
2024-01-15T05:19:22.792Z,53.74
2024-01-15T05:21:53.339Z,53.62
2024-01-15T05:24:23.715Z,53.87
2024-01-15T05:26:54.753Z,53.90
2024-01-15T05:29:25.193Z,53.82
2024-01-15T05:31:55.748Z,53.46
2024-01-15T05:34:28.721Z,52.64
2024-01-15T05:36:58.856Z,52.91
2024-01-15T05:39:28.998Z,52.31
2024-01-15T05:42:01.581Z,51.84
2024-01-15T05:44:31.533Z,50.66
2024-01-15T05:47:02.058Z,50.04
2024-01-15T05:49:32.476Z,51.51
2024-01-15T05:52:05.163Z,51.80
2024-01-15T05:54:35.118Z,52.18
2024-01-15T05:57:06.468Z,51.43
2024-01-15T05:59:38.298Z,51.07
2024-01-15T06:02:17.116Z,51.92
2024-01-15T06:04:47.813Z,51.09
2024-01-15T06:07:17.616Z,51.54
2024-01-15T06:09:47.328Z,51.09
2024-01-15T06:12:17.322Z,51.66
2024-01-15T06:14:47.422Z,51.03
2024-01-15T06:17:18.030Z,50.58
2024-01-15T06:19:47.947Z,50.94
2024-01-15T06:22:17.907Z,50.69
2024-01-15T06:24:48.641Z,51.15
2024-01-15T06:27:18.759Z,51.43
2024-01-15T06:29:50.865Z,51.83
2024-01-15T06:32:21.380Z,51.54
2024-01-15T06:34:52.077Z,50.86
2024-01-15T06:37:22.501Z,51.25
2024-01-15T06:39:52.606Z,50.06
2024-01-15T06:42:24.113Z,49.23
2024-01-15T06:44:54.098Z,48.78
2024-01-15T06:47:24.142Z,48.22
2024-01-15T06:49:54.571Z,48.45
2024-01-15T06:52:24.646Z,49.56
2024-01-15T06:54:54.422Z,49.82
2024-01-15T06:57:24.506Z,50.19
2024-01-15T06:59:54.471Z,50.56
2024-01-15T07:02:24.471Z,49.39
2024-01-15T07:04:54.811Z,48.96
2024-01-15T07:07:24.790Z,47.91
2024-01-15T07:09:54.725Z,47.43
2024-01-15T07:12:25.350Z,46.90
2024-01-15T07:14:55.204Z,46.46
2024-01-15T07:17:25.630Z,46.46
2024-01-15T07:19:55.685Z,46.68
2024-01-15T07:22:25.629Z,46.49
2024-01-15T07:24:56.697Z,46.27
2024-01-15T07:27:27.335Z,45.98
2024-01-15T07:30:00.040Z,45.99
2024-01-15T07:32:40.215Z,46.05
2024-01-15T07:35:10.503Z,45.92
2024-01-15T07:37:40.580Z,46.01
2024-01-15T07:40:11.217Z,45.88
2024-01-15T07:42:41.550Z,45.79
2024-01-15T07:45:13.104Z,45.84
2024-01-15T07:47:43.554Z,46.16
2024-01-15T07:50:14.023Z,46.02
2024-01-15T07:52:46.706Z,46.55
2024-01-15T07:55:17.145Z,46.20
2024-01-15T07:57:53.378Z,46.24
2024-01-15T08:00:28.803Z,46.49
2024-01-15T08:02:59.069Z,46.74
2024-01-15T08:05:30.263Z,46.53
2024-01-15T08:08:02.240Z,47.05
2024-01-15T08:10:32.792Z,47.21
2024-01-15T08:13:02.790Z,47.22
2024-01-15T08:15:32.704Z,47.64
2024-01-15T08:18:02.587Z,47.87
2024-01-15T08:20:35.168Z,47.93
2024-01-15T08:23:05.449Z,47.69
2024-01-15T08:25:35.564Z,47.99
2024-01-15T08:28:07.370Z,48.02
2024-01-15T08:30:38.292Z,47.87
2024-01-15T08:33:18.441Z,47.64
2024-01-15T08:35:51.586Z,47.34
2024-01-15T08:38:22.508Z,47.28
2024-01-15T08:40:53.228Z,47.31
2024-01-15T08:43:23.154Z,47.32
2024-01-15T08:45:53.285Z,47.26
2024-01-15T08:48:23.510Z,46.87
2024-01-15T08:50:53.580Z,47.27
2024-01-15T08:53:23.959Z,46.91
2024-01-15T08:55:54.366Z,46.97
2024-01-15T08:58:27.220Z,46.88
2024-01-15T09:00:57.528Z,46.95
2024-01-15T09:03:28.056Z,46.87
2024-01-15T09:05:58.336Z,47.33
2024-01-15T09:08:47.429Z,47.24
2024-01-15T09:11:17.623Z,47.15
2024-01-15T09:13:47.540Z,47.59
2024-01-15T09:16:18.111Z,47.87
2024-01-15T09:18:49.183Z,47.88
2024-01-15T09:21:19.217Z,47.58
2024-01-15T09:23:49.045Z,47.85
2024-01-15T09:26:18.903Z,48.28
2024-01-15T09:28:49.047Z,47.97
2024-01-15T09:31:22.658Z,48.14
2024-01-15T09:33:58.323Z,47.96
2024-01-15T09:36:29.309Z,47.98
2024-01-15T09:39:01.969Z,48.06
2024-01-15T09:41:32.025Z,48.12
2024-01-15T09:44:01.992Z,47.89
2024-01-15T09:46:32.902Z,47.98
2024-01-15T09:49:04.217Z,47.99
2024-01-15T09:51:35.779Z,47.81
2024-01-15T09:54:06.203Z,47.77
2024-01-15T09:56:36.455Z,48.59
2024-01-15T09:59:06.809Z,48.33
2024-01-15T10:01:39.455Z,48.40
2024-01-15T10:04:09.868Z,48.25
2024-01-15T10:06:41.541Z,48.76
2024-01-15T10:09:16.639Z,48.69
2024-01-15T10:11:47.290Z,48.98
2024-01-15T10:14:17.464Z,48.52
2024-01-15T10:16:57.587Z,48.87
2024-01-15T10:19:27.775Z,48.75
2024-01-15T10:21:58.530Z,49.01
2024-01-15T10:24:30.727Z,49.60
2024-01-15T10:27:13.822Z,49.30
2024-01-15T10:29:45.180Z,49.81
2024-01-15T10:32:15.207Z,49.84
2024-01-15T10:34:45.377Z,50.05
2024-01-15T10:37:17.532Z,50.22
2024-01-15T10:39:49.536Z,50.81
2024-01-15T10:42:22.859Z,51.32
2024-01-15T10:44:55.253Z,51.63
2024-01-15T10:47:25.961Z,51.95
2024-01-15T10:49:56.307Z,51.98
2024-01-15T10:52:26.500Z,52.34
2024-01-15T10:54:57.007Z,51.97
2024-01-15T10:57:29.182Z,52.92
2024-01-15T11:00:00.772Z,52.21
2024-01-15T11:02:31.585Z,52.67
2024-01-15T11:05:02.082Z,52.65
2024-01-15T11:07:35.380Z,52.93
2024-01-15T11:10:10.692Z,52.54
2024-01-15T11:12:44.663Z,52.74
2024-01-15T11:15:23.176Z,52.60
2024-01-15T11:18:07.710Z,53.43
2024-01-15T11:21:19.077Z,52.88
2024-01-15T11:24:00.552Z,52.74
2024-01-15T11:26:36.915Z,52.89
2024-01-15T11:29:09.106Z,52.78
2024-01-15T11:31:42.234Z,52.99
2024-01-15T11:34:14.375Z,53.00
2024-01-15T11:36:56.593Z,52.80
2024-01-15T11:39:30.045Z,52.50
2024-01-15T11:42:01.911Z,52.38
2024-01-15T11:44:32.826Z,52.91
2024-01-15T11:47:07.939Z,51.90
2024-01-15T11:49:59.866Z,51.82
2024-01-15T11:52:35.630Z,52.11
2024-01-15T11:55:41.068Z,52.03
2024-01-15T11:58:12.193Z,51.63
2024-01-15T12:00:51.649Z,52.38
2024-01-15T12:03:27.952Z,52.81
2024-01-15T12:05:58.018Z,52.57
2024-01-15T12:08:30.197Z,52.23
2024-01-15T12:11:02.339Z,52.33
2024-01-15T12:13:32.822Z,52.74
2024-01-15T12:16:06.286Z,52.83
2024-01-15T12:18:37.210Z,52.87
2024-01-15T12:21:08.282Z,53.23
2024-01-15T12:23:51.349Z,53.59
2024-01-15T12:26:21.821Z,53.98
2024-01-15T12:28:55.538Z,54.21
2024-01-15T12:31:27.118Z,54.53
2024-01-15T12:33:58.903Z,54.84
2024-01-15T12:36:29.426Z,54.37
2024-01-15T12:39:02.507Z,54.86
2024-01-15T12:41:37.489Z,54.75
2024-01-15T12:44:07.651Z,54.77
2024-01-15T12:46:40.153Z,54.80
2024-01-15T12:49:11.586Z,54.83
2024-01-15T12:51:43.251Z,55.20
2024-01-15T12:54:14.256Z,54.98
2024-01-15T12:56:44.199Z,55.25
2024-01-15T12:59:18.387Z,55.10
2024-01-15T13:01:49.191Z,55.42
2024-01-15T13:04:26.676Z,55.50
2024-01-15T13:06:56.973Z,55.39
2024-01-15T13:09:27.103Z,55.27
2024-01-15T13:11:57.175Z,55.31
2024-01-15T13:14:28.014Z,55.79
2024-01-15T13:16:59.027Z,55.79
2024-01-15T13:19:29.872Z,55.70
2024-01-15T13:22:02.429Z,56.23
2024-01-15T13:24:32.521Z,56.44
2024-01-15T13:27:02.544Z,55.99
2024-01-15T13:29:32.503Z,55.83
2024-01-15T13:32:04.806Z,56.38
2024-01-15T13:34:35.776Z,56.32
2024-01-15T13:37:08.410Z,56.03
2024-01-15T13:39:38.916Z,56.25
2024-01-15T13:42:08.875Z,56.10
2024-01-15T13:44:38.863Z,56.56
2024-01-15T13:47:08.861Z,56.64
2024-01-15T13:49:40.785Z,56.69
2024-01-15T13:52:10.763Z,56.66
2024-01-15T13:54:48.431Z,56.51
2024-01-15T13:57:29.655Z,57.20
2024-01-15T14:00:00.343Z,57.13
2024-01-15T14:02:30.423Z,56.73
2024-01-15T14:05:00.910Z,57.57
2024-01-15T14:07:33.863Z,57.12
2024-01-15T14:10:20.440Z,56.99
2024-01-15T14:12:50.911Z,57.35
2024-01-15T14:15:25.577Z,56.97
2024-01-15T14:17:55.579Z,57.25
2024-01-15T14:20:25.297Z,57.60
2024-01-15T14:22:55.395Z,57.73
2024-01-15T14:25:29.045Z,57.63
2024-01-15T14:27:58.908Z,57.92
2024-01-15T14:30:28.934Z,57.61
2024-01-15T14:33:01.965Z,57.69
2024-01-15T14:35:31.991Z,57.59
2024-01-15T14:38:20.567Z,56.94
2024-01-15T14:40:51.381Z,57.44
2024-01-15T14:43:22.071Z,57.53
2024-01-15T14:45:52.040Z,57.40
2024-01-15T14:48:22.060Z,57.27
2024-01-15T14:50:52.744Z,56.85
2024-01-15T14:53:23.451Z,57.17
2024-01-15T14:55:56.694Z,57.17
2024-01-15T14:58:26.766Z,56.87
2024-01-15T15:00:58.175Z,56.77
2024-01-15T15:03:28.530Z,56.51
2024-01-15T15:05:59.064Z,56.93
2024-01-15T15:08:29.023Z,57.05
2024-01-15T15:10:59.231Z,56.83
2024-01-15T15:13:38.007Z,56.39
2024-01-15T15:16:15.669Z,56.43
2024-01-15T15:18:48.265Z,56.96
2024-01-15T15:21:18.725Z,57.14
2024-01-15T15:23:54.916Z,56.91
2024-01-15T15:26:24.835Z,57.15
2024-01-15T15:28:55.788Z,56.70
2024-01-15T15:31:27.620Z,56.82
2024-01-15T15:33:57.645Z,56.55
2024-01-15T15:36:28.355Z,56.38
2024-01-15T15:39:00.388Z,56.80
2024-01-15T15:41:30.602Z,56.64
2024-01-15T15:44:00.423Z,56.17
2024-01-15T15:46:30.608Z,56.04
2024-01-15T15:49:03.117Z,55.59
2024-01-15T15:51:35.373Z,55.63
2024-01-15T15:54:07.355Z,55.89
2024-01-15T15:56:42.271Z,55.76
2024-01-15T15:59:12.074Z,55.53
2024-01-15T16:01:44.481Z,55.87
2024-01-15T16:04:14.751Z,56.05
2024-01-15T16:06:45.117Z,55.92
2024-01-15T16:09:18.269Z,56.10
2024-01-15T16:11:48.963Z,55.70
2024-01-15T16:14:19.919Z,55.69
2024-01-15T16:23:13.055Z,55.77
2024-01-15T16:23:26.622Z,56.01
2024-01-15T16:23:42.381Z,56.05
2024-01-15T16:25:25.381Z,55.73
2024-01-15T16:27:55.440Z,56.25
2024-01-15T16:30:30.328Z,56.07
2024-01-15T16:33:07.417Z,55.73
2024-01-15T16:35:38.239Z,56.20
2024-01-15T16:38:08.567Z,55.94
2024-01-15T16:40:40.221Z,56.10
2024-01-15T16:43:11.157Z,56.22
2024-01-15T16:45:41.787Z,56.69
2024-01-15T16:48:11.937Z,56.60
2024-01-15T16:50:42.305Z,56.70
2024-01-15T16:53:12.214Z,56.98
2024-01-15T16:55:42.181Z,57.11
2024-01-15T16:58:12.057Z,57.15
2024-01-15T17:00:41.860Z,57.82
2024-01-15T17:03:11.757Z,58.12
2024-01-15T17:05:43.321Z,59.11
2024-01-15T17:08:13.631Z,59.61
2024-01-15T17:10:43.587Z,59.09
2024-01-15T17:13:13.882Z,59.68
2024-01-15T17:15:43.917Z,59.65
2024-01-15T17:18:13.993Z,60.25
2024-01-15T17:20:47.913Z,60.24
2024-01-15T17:23:17.955Z,60.31
2024-01-15T17:25:47.832Z,60.52
2024-01-15T17:28:17.524Z,60.92
2024-01-15T17:30:48.858Z,60.92
2024-01-15T17:33:23.252Z,60.52
2024-01-15T17:35:54.925Z,60.56
2024-01-15T17:38:27.904Z,60.80
2024-01-15T17:40:57.816Z,60.55
2024-01-15T17:43:28.336Z,61.23
2024-01-15T17:46:02.708Z,61.19
2024-01-15T17:48:37.186Z,61.19
2024-01-15T17:51:08.128Z,61.12
2024-01-15T17:53:37.956Z,60.89
2024-01-15T17:56:07.859Z,61.02
2024-01-15T17:58:37.738Z,60.84
2024-01-15T18:01:10.130Z,61.25
2024-01-15T18:03:41.415Z,60.97
2024-01-15T18:06:13.731Z,60.81
2024-01-15T18:08:43.904Z,61.06
2024-01-15T18:11:21.092Z,61.29
2024-01-15T18:13:51.524Z,60.99
2024-01-15T18:16:27.523Z,60.60
2024-01-15T18:18:58.231Z,61.54
2024-01-15T18:21:28.916Z,61.25
2024-01-15T18:23:58.790Z,61.57
2024-01-15T18:26:30.895Z,61.65
2024-01-15T18:29:01.118Z,61.45
2024-01-15T18:31:32.026Z,61.40
2024-01-15T18:34:02.284Z,61.76
2024-01-15T18:36:32.371Z,61.74
2024-01-15T18:39:07.963Z,61.13
2024-01-15T18:41:38.352Z,62.01
2024-01-15T18:44:09.164Z,61.90
2024-01-15T18:46:39.762Z,61.85
2024-01-15T18:49:20.285Z,61.71
2024-01-15T18:51:54.468Z,61.75
2024-01-15T18:54:25.145Z,61.13
2024-01-15T18:56:55.349Z,61.92
2024-01-15T18:59:26.233Z,61.43
2024-01-15T19:01:56.071Z,61.81
2024-01-15T19:04:26.807Z,61.82
2024-01-15T19:06:56.616Z,62.15
2024-01-15T19:09:27.937Z,61.88
2024-01-15T19:11:58.008Z,62.09
2024-01-15T19:14:28.681Z,61.75
2024-01-15T19:16:59.652Z,62.00
2024-01-15T19:19:30.680Z,61.94
2024-01-15T19:22:00.625Z,61.99
2024-01-15T19:24:30.510Z,62.24
2024-01-15T19:27:00.482Z,62.41
2024-01-15T19:29:33.703Z,62.80
2024-01-15T19:32:05.201Z,62.40
2024-01-15T19:34:35.353Z,62.64
2024-01-15T19:37:06.574Z,63.27
2024-01-15T19:39:36.445Z,63.28
2024-01-15T19:42:06.599Z,63.52
2024-01-15T19:44:36.472Z,63.77
2024-01-15T19:47:06.369Z,64.06
2024-01-15T19:49:36.406Z,63.80
2024-01-15T19:52:07.062Z,63.60
2024-01-15T19:54:37.683Z,63.89
2024-01-15T19:57:16.241Z,64.06
2024-01-15T19:59:46.231Z,63.26
2024-01-15T20:02:16.329Z,63.53
2024-01-15T20:04:46.646Z,63.14
2024-01-15T20:07:16.464Z,63.15
2024-01-15T20:09:48.206Z,63.42
2024-01-15T20:12:18.407Z,63.33
2024-01-15T20:14:48.235Z,63.03
2024-01-15T20:17:21.836Z,62.86
2024-01-15T20:19:52.392Z,63.15
2024-01-15T20:22:22.401Z,63.46
2024-01-15T20:24:53.242Z,63.16
2024-01-15T20:27:23.814Z,63.29
2024-01-15T20:29:53.976Z,63.09
2024-01-15T20:32:26.760Z,63.23
2024-01-15T20:34:56.884Z,63.53
2024-01-15T20:37:26.894Z,63.38
2024-01-15T20:39:56.933Z,62.94
2024-01-15T20:42:28.080Z,63.64
2024-01-15T20:44:58.176Z,63.57
2024-01-15T20:47:28.264Z,63.93
2024-01-15T20:49:58.170Z,63.32
2024-01-15T20:52:28.576Z,63.53
2024-01-15T20:54:58.269Z,63.47
2024-01-15T20:57:28.065Z,63.45
2024-01-15T20:59:57.969Z,63.64
2024-01-15T21:02:27.987Z,63.64
2024-01-15T21:04:57.971Z,63.22
2024-01-15T21:07:29.883Z,62.93
2024-01-15T21:09:59.689Z,62.56
2024-01-15T21:12:29.604Z,62.70
2024-01-15T21:14:59.445Z,62.09
2024-01-15T21:17:29.382Z,62.02
2024-01-15T21:20:00.676Z,61.71
2024-01-15T21:22:30.853Z,61.70
2024-01-15T21:25:00.621Z,61.46
2024-01-15T21:27:31.095Z,61.64
2024-01-15T21:30:01.504Z,61.61
2024-01-15T21:32:31.451Z,61.40
2024-01-15T21:35:03.053Z,61.29
2024-01-15T21:37:33.309Z,61.05
2024-01-15T21:40:05.150Z,61.05
2024-01-15T21:42:46.438Z,61.44
2024-01-15T21:45:16.644Z,61.02
2024-01-15T21:47:46.442Z,61.20
2024-01-15T21:50:16.571Z,61.34
2024-01-15T21:52:51.525Z,61.12
2024-01-15T21:55:24.062Z,60.76
2024-01-15T21:57:54.623Z,60.90
2024-01-15T22:00:24.433Z,60.96
2024-01-15T22:02:55.156Z,61.08
2024-01-15T22:05:25.176Z,61.40
2024-01-15T22:07:55.092Z,60.99
2024-01-15T22:10:25.004Z,60.72
2024-01-15T22:12:54.891Z,61.44
2024-01-15T22:15:25.310Z,61.09
2024-01-15T22:17:57.633Z,61.32
2024-01-15T22:20:27.621Z,61.38
2024-01-15T22:22:59.998Z,60.89
2024-01-15T22:25:30.157Z,60.66
2024-01-15T22:28:00.241Z,60.69
2024-01-15T22:30:31.852Z,60.91
2024-01-15T22:33:02.801Z,60.93
2024-01-15T22:35:33.332Z,60.63
2024-01-15T22:38:03.288Z,60.97
2024-01-15T22:40:36.210Z,60.83
2024-01-15T22:43:06.520Z,60.49
2024-01-15T22:45:37.319Z,60.90
2024-01-15T22:48:08.124Z,61.06
2024-01-15T22:50:41.151Z,60.70
2024-01-15T22:53:11.625Z,60.78
2024-01-15T22:55:41.714Z,60.51
2024-01-15T22:58:11.384Z,60.92
2024-01-15T23:00:45.868Z,61.18
2024-01-15T23:03:16.273Z,61.18
2024-01-15T23:05:46.551Z,60.37
2024-01-15T23:08:16.737Z,60.72
2024-01-15T23:10:50.168Z,60.92
2024-01-15T23:13:20.283Z,60.63
2024-01-15T23:15:52.852Z,60.69
2024-01-15T23:18:22.827Z,61.34
2024-01-15T23:20:52.825Z,61.07
2024-01-15T23:23:22.704Z,60.84
2024-01-15T23:25:52.539Z,61.17
2024-01-15T23:28:22.452Z,61.32
2024-01-15T23:30:52.367Z,60.89
2024-01-15T23:33:22.688Z,60.79
2024-01-15T23:35:55.154Z,61.30
2024-01-15T23:38:26.590Z,61.22
2024-01-15T23:40:58.239Z,61.89
2024-01-15T23:43:28.440Z,61.70
2024-01-15T23:46:10.066Z,61.35
2024-01-15T23:48:44.410Z,61.67
2024-01-15T23:51:14.478Z,61.47
2024-01-15T23:53:44.796Z,61.57
2024-01-15T23:56:16.208Z,61.10
2024-01-15T23:58:46.997Z,61.81
